sensor_id;sensor_type;location;lat;lon;timestamp;temperature;humidity
27026;DHT22;14565;48.626;8.978;2023-04-25T00:01:36;7.60;99.90
27026;DHT22;14565;48.626;8.978;2023-04-25T00:04:03;7.70;99.90
27026;DHT22;14565;48.626;8.978;2023-04-25T00:06:29;7.60;99.90
27026;DHT22;14565;48.626;8.978;2023-04-25T00:08:55;7.60;99.90
27026;DHT22;14565;48.626;8.978;2023-04-25T00:11:22;7.50;99.90
27026;DHT22;14565;48.626;8.978;2023-04-25T00:13:48;7.50;99.90
27026;DHT22;14565;48.626;8.978;2023-04-25T00:16:15;7.50;99.90
27026;DHT22;14565;48.626;8.978;2023-04-25T00:18:42;7.40;99.90
27026;DHT22;14565;48.626;8.978;2023-04-25T00:21:08;7.40;99.90
27026;DHT22;14565;48.626;8.978;2023-04-25T00:23:34;7.30;99.90
27026;DHT22;14565;48.626;8.978;2023-04-25T00:26:02;7.30;99.90
27026;DHT22;14565;48.626;8.978;2023-04-25T00:28:27;7.30;99.90
27026;DHT22;14565;48.626;8.978;2023-04-25T00:30:53;7.20;99.90
27026;DHT22;14565;48.626;8.978;2023-04-25T00:33:18;7.10;99.90
27026;DHT22;14565;48.626;8.978;2023-04-25T00:35:44;7.00;99.90
27026;DHT22;14565;48.626;8.978;2023-04-25T00:38:10;7.10;99.90
27026;DHT22;14565;48.626;8.978;2023-04-25T00:40:35;7.00;99.90
27026;DHT22;14565;48.626;8.978;2023-04-25T00:43:01;7.00;99.90
27026;DHT22;14565;48.626;8.978;2023-04-25T00:45:28;7.10;99.90
27026;DHT22;14565;48.626;8.978;2023-04-25T00:47:54;7.10;99.90
27026;DHT22;14565;48.626;8.978;2023-04-25T00:50:20;7.10;99.90
27026;DHT22;14565;48.626;8.978;2023-04-25T00:52:46;7.10;99.90
27026;DHT22;14565;48.626;8.978;2023-04-25T00:55:12;7.10;99.90
27026;DHT22;14565;48.626;8.978;2023-04-25T00:57:38;7.10;99.90
27026;DHT22;14565;48.626;8.978;2023-04-25T01:00:07;7.20;99.90
27026;DHT22;14565;48.626;8.978;2023-04-25T01:02:35;7.10;99.90
27026;DHT22;14565;48.626;8.978;2023-04-25T01:05:01;7.10;99.90
27026;DHT22;14565;48.626;8.978;2023-04-25T01:07:27;7.20;99.90
27026;DHT22;14565;48.626;8.978;2023-04-25T01:09:55;7.30;99.90
27026;DHT22;14565;48.626;8.978;2023-04-25T01:12:21;7.20;99.90
27026;DHT22;14565;48.626;8.978;2023-04-25T01:14:47;7.30;99.90
27026;DHT22;14565;48.626;8.978;2023-04-25T01:17:13;7.20;99.90
27026;DHT22;14565;48.626;8.978;2023-04-25T01:19:38;7.10;99.90
27026;DHT22;14565;48.626;8.978;2023-04-25T01:22:04;7.20;99.90
27026;DHT22;14565;48.626;8.978;2023-04-25T01:24:33;7.20;99.90
27026;DHT22;14565;48.626;8.978;2023-04-25T01:27:03;7.20;99.90
27026;DHT22;14565;48.626;8.978;2023-04-25T01:29:28;7.20;99.90
27026;DHT22;14565;48.626;8.978;2023-04-25T01:31:54;7.20;99.90
27026;DHT22;14565;48.626;8.978;2023-04-25T01:34:20;7.00;99.90
27026;DHT22;14565;48.626;8.978;2023-04-25T01:36:49;7.00;99.90
27026;DHT22;14565;48.626;8.978;2023-04-25T01:39:16;7.00;99.90
27026;DHT22;14565;48.626;8.978;2023-04-25T01:41:42;7.10;99.90
27026;DHT22;14565;48.626;8.978;2023-04-25T01:44:08;7.10;99.90
27026;DHT22;14565;48.626;8.978;2023-04-25T01:46:34;7.10;99.90
27026;DHT22;14565;48.626;8.978;2023-04-25T01:49:00;7.10;99.90
27026;DHT22;14565;48.626;8.978;2023-04-25T01:51:25;7.10;99.90
27026;DHT22;14565;48.626;8.978;2023-04-25T01:53:51;7.00;99.90
27026;DHT22;14565;48.626;8.978;2023-04-25T01:56:18;7.10;99.90
27026;DHT22;14565;48.626;8.978;2023-04-25T01:58:44;7.00;99.90
27026;DHT22;14565;48.626;8.978;2023-04-25T02:01:10;7.00;99.90
27026;DHT22;14565;48.626;8.978;2023-04-25T02:03:35;7.10;99.90
27026;DHT22;14565;48.626;8.978;2023-04-25T02:06:01;7.10;99.90
27026;DHT22;14565;48.626;8.978;2023-04-25T02:08:27;7.10;99.90
27026;DHT22;14565;48.626;8.978;2023-04-25T02:10:52;7.00;99.90
27026;DHT22;14565;48.626;8.978;2023-04-25T02:13:18;7.00;99.90
27026;DHT22;14565;48.626;8.978;2023-04-25T02:15:44;7.00;99.90
27026;DHT22;14565;48.626;8.978;2023-04-25T02:18:09;7.00;99.90
27026;DHT22;14565;48.626;8.978;2023-04-25T02:20:36;7.00;99.90
27026;DHT22;14565;48.626;8.978;2023-04-25T02:23:03;6.70;99.90
27026;DHT22;14565;48.626;8.978;2023-04-25T02:25:28;6.70;99.90
27026;DHT22;14565;48.626;8.978;2023-04-25T02:27:54;6.70;99.90
27026;DHT22;14565;48.626;8.978;2023-04-25T02:30:20;6.80;99.90
27026;DHT22;14565;48.626;8.978;2023-04-25T02:32:46;6.80;99.90
27026;DHT22;14565;48.626;8.978;2023-04-25T02:35:11;6.70;99.90
27026;DHT22;14565;48.626;8.978;2023-04-25T02:37:38;6.60;99.90
27026;DHT22;14565;48.626;8.978;2023-04-25T02:40:05;6.70;99.90
27026;DHT22;14565;48.626;8.978;2023-04-25T02:42:31;6.70;99.90
27026;DHT22;14565;48.626;8.978;2023-04-25T02:44:57;6.70;99.90
27026;DHT22;14565;48.626;8.978;2023-04-25T02:47:22;6.70;99.90
27026;DHT22;14565;48.626;8.978;2023-04-25T02:49:48;6.70;99.90
27026;DHT22;14565;48.626;8.978;2023-04-25T02:52:14;6.70;99.90
27026;DHT22;14565;48.626;8.978;2023-04-25T02:54:42;6.70;99.90
27026;DHT22;14565;48.626;8.978;2023-04-25T02:57:08;6.60;99.90
27026;DHT22;14565;48.626;8.978;2023-04-25T02:59:34;6.60;99.90
27026;DHT22;14565;48.626;8.978;2023-04-25T03:02:00;6.60;99.90
27026;DHT22;14565;48.626;8.978;2023-04-25T03:04:26;6.60;99.90
27026;DHT22;14565;48.626;8.978;2023-04-25T03:06:52;6.60;99.90
27026;DHT22;14565;48.626;8.978;2023-04-25T03:09:18;6.70;99.90
27026;DHT22;14565;48.626;8.978;2023-04-25T03:11:44;6.80;99.90
27026;DHT22;14565;48.626;8.978;2023-04-25T03:14:10;6.80;99.90
27026;DHT22;14565;48.626;8.978;2023-04-25T03:16:36;6.80;99.90
27026;DHT22;14565;48.626;8.978;2023-04-25T03:19:03;6.80;99.90
27026;DHT22;14565;48.626;8.978;2023-04-25T03:21:29;6.80;99.90
27026;DHT22;14565;48.626;8.978;2023-04-25T03:23:57;6.90;99.90
27026;DHT22;14565;48.626;8.978;2023-04-25T03:26:22;6.80;99.90
27026;DHT22;14565;48.626;8.978;2023-04-25T03:28:48;6.70;99.90
27026;DHT22;14565;48.626;8.978;2023-04-25T03:31:13;6.70;99.90
27026;DHT22;14565;48.626;8.978;2023-04-25T03:33:40;6.70;99.90
27026;DHT22;14565;48.626;8.978;2023-04-25T03:36:06;6.60;99.90
27026;DHT22;14565;48.626;8.978;2023-04-25T03:38:32;6.60;99.90
27026;DHT22;14565;48.626;8.978;2023-04-25T03:40:57;6.50;99.90
27026;DHT22;14565;48.626;8.978;2023-04-25T03:43:23;6.50;99.90
27026;DHT22;14565;48.626;8.978;2023-04-25T03:45:49;6.40;99.90
27026;DHT22;14565;48.626;8.978;2023-04-25T03:48:15;6.50;99.90
27026;DHT22;14565;48.626;8.978;2023-04-25T03:50:40;6.40;99.90
27026;DHT22;14565;48.626;8.978;2023-04-25T03:53:06;6.30;99.90
27026;DHT22;14565;48.626;8.978;2023-04-25T03:55:31;6.20;99.90
27026;DHT22;14565;48.626;8.978;2023-04-25T03:57:58;6.10;99.90
27026;DHT22;14565;48.626;8.978;2023-04-25T04:00:24;6.00;99.90
27026;DHT22;14565;48.626;8.978;2023-04-25T04:02:50;5.90;99.90
27026;DHT22;14565;48.626;8.978;2023-04-25T04:05:16;5.90;99.90
27026;DHT22;14565;48.626;8.978;2023-04-25T04:07:42;5.90;99.90
27026;DHT22;14565;48.626;8.978;2023-04-25T04:10:11;5.90;99.90
27026;DHT22;14565;48.626;8.978;2023-04-25T04:12:37;6.00;99.90
27026;DHT22;14565;48.626;8.978;2023-04-25T04:15:04;5.90;99.90
27026;DHT22;14565;48.626;8.978;2023-04-25T04:17:30;5.70;99.90
27026;DHT22;14565;48.626;8.978;2023-04-25T04:19:56;5.70;99.90
27026;DHT22;14565;48.626;8.978;2023-04-25T04:22:22;5.80;99.90
27026;DHT22;14565;48.626;8.978;2023-04-25T04:24:47;5.70;99.90
27026;DHT22;14565;48.626;8.978;2023-04-25T04:27:17;5.80;99.90
27026;DHT22;14565;48.626;8.978;2023-04-25T04:29:43;5.80;99.90
27026;DHT22;14565;48.626;8.978;2023-04-25T04:32:09;5.80;99.90
27026;DHT22;14565;48.626;8.978;2023-04-25T04:34:35;5.80;99.90
27026;DHT22;14565;48.626;8.978;2023-04-25T04:37:05;5.80;99.90
27026;DHT22;14565;48.626;8.978;2023-04-25T04:39:32;5.80;99.90
27026;DHT22;14565;48.626;8.978;2023-04-25T04:41:58;5.90;99.90
27026;DHT22;14565;48.626;8.978;2023-04-25T04:44:27;5.90;99.90
27026;DHT22;14565;48.626;8.978;2023-04-25T04:46:53;6.00;99.90
27026;DHT22;14565;48.626;8.978;2023-04-25T04:49:21;6.00;99.90
27026;DHT22;14565;48.626;8.978;2023-04-25T04:51:46;6.00;99.90
27026;DHT22;14565;48.626;8.978;2023-04-25T04:54:13;6.10;99.90
27026;DHT22;14565;48.626;8.978;2023-04-25T04:56:38;6.10;99.90
27026;DHT22;14565;48.626;8.978;2023-04-25T04:59:04;6.20;99.90
27026;DHT22;14565;48.626;8.978;2023-04-25T05:01:30;6.50;99.90
27026;DHT22;14565;48.626;8.978;2023-04-25T05:03:56;6.50;99.90
27026;DHT22;14565;48.626;8.978;2023-04-25T05:06:26;6.50;99.90
27026;DHT22;14565;48.626;8.978;2023-04-25T05:08:52;6.40;99.90
27026;DHT22;14565;48.626;8.978;2023-04-25T05:11:19;6.40;99.90
27026;DHT22;14565;48.626;8.978;2023-04-25T05:13:44;6.30;99.90
27026;DHT22;14565;48.626;8.978;2023-04-25T05:16:13;6.60;99.90
27026;DHT22;14565;48.626;8.978;2023-04-25T05:18:42;6.60;99.90
27026;DHT22;14565;48.626;8.978;2023-04-25T05:21:08;6.40;99.90
27026;DHT22;14565;48.626;8.978;2023-04-25T05:23:34;6.50;99.90
27026;DHT22;14565;48.626;8.978;2023-04-25T05:25:59;6.40;99.90
27026;DHT22;14565;48.626;8.978;2023-04-25T05:28:25;6.50;99.90
27026;DHT22;14565;48.626;8.978;2023-04-25T05:30:51;6.60;99.90
27026;DHT22;14565;48.626;8.978;2023-04-25T05:33:17;6.40;99.90
27026;DHT22;14565;48.626;8.978;2023-04-25T05:35:43;6.60;99.90
27026;DHT22;14565;48.626;8.978;2023-04-25T05:38:09;6.70;99.90
27026;DHT22;14565;48.626;8.978;2023-04-25T05:40:35;6.90;99.90
27026;DHT22;14565;48.626;8.978;2023-04-25T05:43:03;7.10;99.90
27026;DHT22;14565;48.626;8.978;2023-04-25T05:45:29;7.10;99.90
27026;DHT22;14565;48.626;8.978;2023-04-25T05:47:54;7.20;99.90
27026;DHT22;14565;48.626;8.978;2023-04-25T05:50:20;7.30;99.90
27026;DHT22;14565;48.626;8.978;2023-04-25T05:52:46;7.30;99.90
27026;DHT22;14565;48.626;8.978;2023-04-25T05:55:12;7.50;99.90
27026;DHT22;14565;48.626;8.978;2023-04-25T05:57:38;7.70;99.90
27026;DHT22;14565;48.626;8.978;2023-04-25T06:00:11;7.70;99.90
27026;DHT22;14565;48.626;8.978;2023-04-25T06:02:37;7.70;99.90
27026;DHT22;14565;48.626;8.978;2023-04-25T06:05:02;7.80;99.90
27026;DHT22;14565;48.626;8.978;2023-04-25T06:07:29;7.90;99.90
27026;DHT22;14565;48.626;8.978;2023-04-25T06:09:57;8.00;99.90
27026;DHT22;14565;48.626;8.978;2023-04-25T06:12:26;8.20;99.90
27026;DHT22;14565;48.626;8.978;2023-04-25T06:14:52;8.30;99.90
27026;DHT22;14565;48.626;8.978;2023-04-25T06:17:18;8.50;99.90
27026;DHT22;14565;48.626;8.978;2023-04-25T06:19:43;8.30;99.90
27026;DHT22;14565;48.626;8.978;2023-04-25T06:22:09;8.20;99.90
27026;DHT22;14565;48.626;8.978;2023-04-25T06:24:35;8.10;99.90
27026;DHT22;14565;48.626;8.978;2023-04-25T06:27:01;8.10;99.90
27026;DHT22;14565;48.626;8.978;2023-04-25T06:29:26;7.90;99.90
27026;DHT22;14565;48.626;8.978;2023-04-25T06:31:52;7.70;99.90
27026;DHT22;14565;48.626;8.978;2023-04-25T06:34:18;7.70;99.90
27026;DHT22;14565;48.626;8.978;2023-04-25T06:36:43;7.60;99.90
27026;DHT22;14565;48.626;8.978;2023-04-25T06:39:10;7.80;99.90
27026;DHT22;14565;48.626;8.978;2023-04-25T06:41:36;7.70;99.90
27026;DHT22;14565;48.626;8.978;2023-04-25T06:44:02;7.60;99.90
27026;DHT22;14565;48.626;8.978;2023-04-25T06:46:27;7.50;99.90
27026;DHT22;14565;48.626;8.978;2023-04-25T06:48:53;7.50;99.90
27026;DHT22;14565;48.626;8.978;2023-04-25T06:51:19;7.40;99.90
27026;DHT22;14565;48.626;8.978;2023-04-25T06:53:44;7.20;99.90
27026;DHT22;14565;48.626;8.978;2023-04-25T06:56:10;7.00;99.90
27026;DHT22;14565;48.626;8.978;2023-04-25T06:58:36;7.10;99.90
27026;DHT22;14565;48.626;8.978;2023-04-25T07:01:02;7.10;99.90
27026;DHT22;14565;48.626;8.978;2023-04-25T07:03:28;7.10;99.90
27026;DHT22;14565;48.626;8.978;2023-04-25T07:05:53;7.10;99.90
27026;DHT22;14565;48.626;8.978;2023-04-25T07:08:19;6.90;99.90
27026;DHT22;14565;48.626;8.978;2023-04-25T07:10:45;7.00;99.90
27026;DHT22;14565;48.626;8.978;2023-04-25T07:13:11;7.00;99.90
27026;DHT22;14565;48.626;8.978;2023-04-25T07:15:37;7.00;99.90
27026;DHT22;14565;48.626;8.978;2023-04-25T07:18:03;6.70;99.90
27026;DHT22;14565;48.626;8.978;2023-04-25T07:20:28;6.80;99.90
27026;DHT22;14565;48.626;8.978;2023-04-25T07:22:56;6.70;99.90
27026;DHT22;14565;48.626;8.978;2023-04-25T07:25:22;6.80;99.90
27026;DHT22;14565;48.626;8.978;2023-04-25T07:27:48;6.70;99.90
27026;DHT22;14565;48.626;8.978;2023-04-25T07:30:14;6.60;99.90
27026;DHT22;14565;48.626;8.978;2023-04-25T07:32:39;6.60;99.90
27026;DHT22;14565;48.626;8.978;2023-04-25T07:35:05;6.60;99.90
27026;DHT22;14565;48.626;8.978;2023-04-25T07:37:33;6.60;99.90
27026;DHT22;14565;48.626;8.978;2023-04-25T07:40:00;6.50;99.90
27026;DHT22;14565;48.626;8.978;2023-04-25T07:42:26;6.60;99.90
27026;DHT22;14565;48.626;8.978;2023-04-25T07:44:51;6.80;99.90
27026;DHT22;14565;48.626;8.978;2023-04-25T07:47:17;6.90;99.90
27026;DHT22;14565;48.626;8.978;2023-04-25T07:49:44;6.90;99.90
27026;DHT22;14565;48.626;8.978;2023-04-25T07:52:11;6.90;99.90
27026;DHT22;14565;48.626;8.978;2023-04-25T07:54:36;6.80;99.90
27026;DHT22;14565;48.626;8.978;2023-04-25T07:57:02;7.10;99.90
27026;DHT22;14565;48.626;8.978;2023-04-25T07:59:28;7.20;99.90
27026;DHT22;14565;48.626;8.978;2023-04-25T08:01:54;7.20;99.90
27026;DHT22;14565;48.626;8.978;2023-04-25T08:04:19;6.90;99.90
27026;DHT22;14565;48.626;8.978;2023-04-25T08:06:46;6.80;99.90
27026;DHT22;14565;48.626;8.978;2023-04-25T08:09:11;6.80;99.90
27026;DHT22;14565;48.626;8.978;2023-04-25T08:11:37;7.00;99.90
27026;DHT22;14565;48.626;8.978;2023-04-25T08:14:03;6.80;99.90
27026;DHT22;14565;48.626;8.978;2023-04-25T08:16:29;6.40;99.90
27026;DHT22;14565;48.626;8.978;2023-04-25T08:18:55;6.60;99.90
27026;DHT22;14565;48.626;8.978;2023-04-25T08:21:21;6.60;99.90
27026;DHT22;14565;48.626;8.978;2023-04-25T08:23:46;6.40;99.90
27026;DHT22;14565;48.626;8.978;2023-04-25T08:26:12;6.30;99.90
27026;DHT22;14565;48.626;8.978;2023-04-25T08:28:41;6.50;99.90
27026;DHT22;14565;48.626;8.978;2023-04-25T08:31:06;6.60;99.90
27026;DHT22;14565;48.626;8.978;2023-04-25T08:33:32;6.50;99.90
27026;DHT22;14565;48.626;8.978;2023-04-25T08:35:58;6.30;99.90
27026;DHT22;14565;48.626;8.978;2023-04-25T08:38:24;6.40;99.90
27026;DHT22;14565;48.626;8.978;2023-04-25T08:40:50;6.30;99.90
27026;DHT22;14565;48.626;8.978;2023-04-25T08:43:20;6.40;99.90
27026;DHT22;14565;48.626;8.978;2023-04-25T08:45:46;6.60;99.90
27026;DHT22;14565;48.626;8.978;2023-04-25T08:48:14;6.30;99.90
27026;DHT22;14565;48.626;8.978;2023-04-25T08:50:50;6.30;99.90
27026;DHT22;14565;48.626;8.978;2023-04-25T08:53:17;6.30;99.90
27026;DHT22;14565;48.626;8.978;2023-04-25T08:55:46;6.50;99.90
27026;DHT22;14565;48.626;8.978;2023-04-25T08:58:13;6.30;99.90
27026;DHT22;14565;48.626;8.978;2023-04-25T09:00:39;6.50;99.90
27026;DHT22;14565;48.626;8.978;2023-04-25T09:03:05;6.40;99.90
27026;DHT22;14565;48.626;8.978;2023-04-25T09:05:33;6.50;99.90
27026;DHT22;14565;48.626;8.978;2023-04-25T09:08:00;6.50;99.90
27026;DHT22;14565;48.626;8.978;2023-04-25T09:10:26;6.40;99.90
27026;DHT22;14565;48.626;8.978;2023-04-25T09:13:13;6.30;99.90
27026;DHT22;14565;48.626;8.978;2023-04-25T09:20:47;6.30;99.90
27026;DHT22;14565;48.626;8.978;2023-04-25T09:23:14;6.10;99.90
27026;DHT22;14565;48.626;8.978;2023-04-25T09:25:40;6.00;99.90
27026;DHT22;14565;48.626;8.978;2023-04-25T09:28:08;5.90;99.90
27026;DHT22;14565;48.626;8.978;2023-04-25T09:30:35;5.90;99.90
27026;DHT22;14565;48.626;8.978;2023-04-25T09:33:06;5.90;99.90
27026;DHT22;14565;48.626;8.978;2023-04-25T09:35:40;6.00;99.90
27026;DHT22;14565;48.626;8.978;2023-04-25T09:38:10;6.00;99.90
27026;DHT22;14565;48.626;8.978;2023-04-25T09:40:44;6.00;99.90
27026;DHT22;14565;48.626;8.978;2023-04-25T09:43:20;5.90;99.90
27026;DHT22;14565;48.626;8.978;2023-04-25T09:45:49;6.10;99.90
27026;DHT22;14565;48.626;8.978;2023-04-25T09:48:21;5.80;99.90
27026;DHT22;14565;48.626;8.978;2023-04-25T09:51:06;6.10;99.90
27026;DHT22;14565;48.626;8.978;2023-04-25T09:53:37;6.10;99.90
27026;DHT22;14565;48.626;8.978;2023-04-25T09:56:07;6.20;99.90
27026;DHT22;14565;48.626;8.978;2023-04-25T09:58:34;5.90;99.90
27026;DHT22;14565;48.626;8.978;2023-04-25T10:01:02;6.00;99.90
27026;DHT22;14565;48.626;8.978;2023-04-25T10:03:33;6.00;99.90
27026;DHT22;14565;48.626;8.978;2023-04-25T10:06:00;5.90;99.90
27026;DHT22;14565;48.626;8.978;2023-04-25T10:08:33;5.80;99.90
27026;DHT22;14565;48.626;8.978;2023-04-25T10:11:06;6.10;99.90
27026;DHT22;14565;48.626;8.978;2023-04-25T10:13:35;6.30;99.90
27026;DHT22;14565;48.626;8.978;2023-04-25T10:16:04;6.20;99.90
27026;DHT22;14565;48.626;8.978;2023-04-25T10:18:32;6.00;99.90
27026;DHT22;14565;48.626;8.978;2023-04-25T10:21:00;6.20;99.90
27026;DHT22;14565;48.626;8.978;2023-04-25T10:23:26;6.20;99.90
27026;DHT22;14565;48.626;8.978;2023-04-25T10:25:53;6.20;99.90
27026;DHT22;14565;48.626;8.978;2023-04-25T10:28:19;6.20;99.90
27026;DHT22;14565;48.626;8.978;2023-04-25T10:31:01;6.40;99.90
27026;DHT22;14565;48.626;8.978;2023-04-25T10:38:36;6.50;99.90
27026;DHT22;14565;48.626;8.978;2023-04-25T10:41:07;6.60;99.90
27026;DHT22;14565;48.626;8.978;2023-04-25T10:43:43;6.70;99.90
27026;DHT22;14565;48.626;8.978;2023-04-25T10:46:28;6.20;99.90
27026;DHT22;14565;48.626;8.978;2023-04-25T10:48:58;6.40;99.90
27026;DHT22;14565;48.626;8.978;2023-04-25T10:51:28;6.70;99.90
27026;DHT22;14565;48.626;8.978;2023-04-25T10:54:01;6.30;99.90
27026;DHT22;14565;48.626;8.978;2023-04-25T10:56:37;6.50;99.90
27026;DHT22;14565;48.626;8.978;2023-04-25T10:59:36;6.60;99.90
27026;DHT22;14565;48.626;8.978;2023-04-25T11:02:11;6.50;99.90
27026;DHT22;14565;48.626;8.978;2023-04-25T11:04:38;6.70;99.90
27026;DHT22;14565;48.626;8.978;2023-04-25T11:09:56;6.80;99.90
27026;DHT22;14565;48.626;8.978;2023-04-25T11:12:24;7.10;99.90
27026;DHT22;14565;48.626;8.978;2023-04-25T11:14:50;7.00;99.90
27026;DHT22;14565;48.626;8.978;2023-04-25T11:17:15;6.90;99.90
27026;DHT22;14565;48.626;8.978;2023-04-25T11:19:41;6.90;99.90
27026;DHT22;14565;48.626;8.978;2023-04-25T11:22:07;7.00;99.90
27026;DHT22;14565;48.626;8.978;2023-04-25T11:24:36;7.10;99.90
27026;DHT22;14565;48.626;8.978;2023-04-25T11:27:03;7.20;99.90
27026;DHT22;14565;48.626;8.978;2023-04-25T11:29:33;7.30;99.90
27026;DHT22;14565;48.626;8.978;2023-04-25T11:31:59;7.60;99.90
27026;DHT22;14565;48.626;8.978;2023-04-25T11:34:29;7.60;99.90
27026;DHT22;14565;48.626;8.978;2023-04-25T11:37:02;7.50;99.90
27026;DHT22;14565;48.626;8.978;2023-04-25T11:39:28;7.60;99.90
27026;DHT22;14565;48.626;8.978;2023-04-25T11:41:57;7.70;99.90
27026;DHT22;14565;48.626;8.978;2023-04-25T11:44:30;7.50;99.90
27026;DHT22;14565;48.626;8.978;2023-04-25T11:46:59;7.60;99.90
27026;DHT22;14565;48.626;8.978;2023-04-25T11:49:30;7.20;99.90
27026;DHT22;14565;48.626;8.978;2023-04-25T11:51:57;7.10;99.90
27026;DHT22;14565;48.626;8.978;2023-04-25T11:54:22;7.00;99.90
27026;DHT22;14565;48.626;8.978;2023-04-25T11:56:48;7.00;99.90
27026;DHT22;14565;48.626;8.978;2023-04-25T11:59:16;6.80;99.90
27026;DHT22;14565;48.626;8.978;2023-04-25T12:01:49;6.70;99.90
27026;DHT22;14565;48.626;8.978;2023-04-25T12:06:43;6.90;99.90
27026;DHT22;14565;48.626;8.978;2023-04-25T12:09:12;7.00;99.90
27026;DHT22;14565;48.626;8.978;2023-04-25T12:14:10;7.00;99.90
27026;DHT22;14565;48.626;8.978;2023-04-25T12:16:46;7.00;99.90
27026;DHT22;14565;48.626;8.978;2023-04-25T12:19:20;7.50;99.90
27026;DHT22;14565;48.626;8.978;2023-04-25T12:21:46;7.30;99.90
27026;DHT22;14565;48.626;8.978;2023-04-25T12:29:21;7.20;99.90
27026;DHT22;14565;48.626;8.978;2023-04-25T12:31:48;7.70;99.90
27026;DHT22;14565;48.626;8.978;2023-04-25T12:34:14;7.30;99.90
27026;DHT22;14565;48.626;8.978;2023-04-25T12:36:40;7.60;99.90
27026;DHT22;14565;48.626;8.978;2023-04-25T12:39:06;7.40;99.90
27026;DHT22;14565;48.626;8.978;2023-04-25T12:41:32;7.40;99.90
27026;DHT22;14565;48.626;8.978;2023-04-25T12:43:58;7.40;99.90
27026;DHT22;14565;48.626;8.978;2023-04-25T12:46:24;7.10;99.90
27026;DHT22;14565;48.626;8.978;2023-04-25T12:48:50;7.50;99.90
27026;DHT22;14565;48.626;8.978;2023-04-25T12:51:15;7.50;99.90
27026;DHT22;14565;48.626;8.978;2023-04-25T12:53:41;7.60;99.90
27026;DHT22;14565;48.626;8.978;2023-04-25T12:56:08;7.40;99.90
27026;DHT22;14565;48.626;8.978;2023-04-25T12:58:33;7.70;99.90
27026;DHT22;14565;48.626;8.978;2023-04-25T13:00:59;8.10;99.90
27026;DHT22;14565;48.626;8.978;2023-04-25T13:03:25;8.40;99.90
27026;DHT22;14565;48.626;8.978;2023-04-25T13:05:51;8.10;99.90
27026;DHT22;14565;48.626;8.978;2023-04-25T13:08:18;8.00;99.90
27026;DHT22;14565;48.626;8.978;2023-04-25T13:10:44;7.90;99.90
27026;DHT22;14565;48.626;8.978;2023-04-25T13:13:10;8.20;99.90
27026;DHT22;14565;48.626;8.978;2023-04-25T13:15:36;8.70;99.90
27026;DHT22;14565;48.626;8.978;2023-04-25T13:18:03;8.50;99.90
27026;DHT22;14565;48.626;8.978;2023-04-25T13:20:29;8.30;99.90
27026;DHT22;14565;48.626;8.978;2023-04-25T13:22:55;8.10;99.90
27026;DHT22;14565;48.626;8.978;2023-04-25T13:25:21;8.60;99.90
27026;DHT22;14565;48.626;8.978;2023-04-25T13:27:47;8.30;99.90
27026;DHT22;14565;48.626;8.978;2023-04-25T13:30:13;8.80;99.90
27026;DHT22;14565;48.626;8.978;2023-04-25T13:32:39;8.60;99.90
27026;DHT22;14565;48.626;8.978;2023-04-25T13:35:16;9.10;99.90
27026;DHT22;14565;48.626;8.978;2023-04-25T13:37:41;9.80;99.90
27026;DHT22;14565;48.626;8.978;2023-04-25T13:40:09;9.40;99.90
27026;DHT22;14565;48.626;8.978;2023-04-25T13:42:37;8.90;99.90
27026;DHT22;14565;48.626;8.978;2023-04-25T13:45:07;8.90;99.90
27026;DHT22;14565;48.626;8.978;2023-04-25T13:47:41;8.50;99.90
27026;DHT22;14565;48.626;8.978;2023-04-25T13:50:07;8.40;99.90
27026;DHT22;14565;48.626;8.978;2023-04-25T13:52:33;8.30;99.90
27026;DHT22;14565;48.626;8.978;2023-04-25T13:54:59;8.70;99.90
27026;DHT22;14565;48.626;8.978;2023-04-25T13:57:35;9.10;99.90
27026;DHT22;14565;48.626;8.978;2023-04-25T14:00:05;9.50;99.90
27026;DHT22;14565;48.626;8.978;2023-04-25T14:02:39;9.10;99.90
27026;DHT22;14565;48.626;8.978;2023-04-25T14:05:11;9.70;99.90
27026;DHT22;14565;48.626;8.978;2023-04-25T14:07:38;10.20;99.90
27026;DHT22;14565;48.626;8.978;2023-04-25T14:10:04;10.10;99.90
27026;DHT22;14565;48.626;8.978;2023-04-25T14:12:41;10.20;99.90
27026;DHT22;14565;48.626;8.978;2023-04-25T14:15:07;9.50;99.90
27026;DHT22;14565;48.626;8.978;2023-04-25T14:17:32;9.70;99.90
27026;DHT22;14565;48.626;8.978;2023-04-25T14:19:58;9.90;99.90
27026;DHT22;14565;48.626;8.978;2023-04-25T14:22:26;10.00;99.90
27026;DHT22;14565;48.626;8.978;2023-04-25T14:24:55;9.80;99.90
27026;DHT22;14565;48.626;8.978;2023-04-25T14:27:21;9.50;99.90
27026;DHT22;14565;48.626;8.978;2023-04-25T14:29:47;9.20;99.90
27026;DHT22;14565;48.626;8.978;2023-04-25T14:32:13;9.10;99.90
27026;DHT22;14565;48.626;8.978;2023-04-25T14:34:38;9.30;99.90
27026;DHT22;14565;48.626;8.978;2023-04-25T14:37:04;9.20;99.90
27026;DHT22;14565;48.626;8.978;2023-04-25T14:39:35;9.80;99.90
27026;DHT22;14565;48.626;8.978;2023-04-25T14:42:16;9.40;99.90
27026;DHT22;14565;48.626;8.978;2023-04-25T14:44:45;9.60;99.90
27026;DHT22;14565;48.626;8.978;2023-04-25T14:47:14;9.80;99.90
27026;DHT22;14565;48.626;8.978;2023-04-25T14:49:44;9.90;99.90
27026;DHT22;14565;48.626;8.978;2023-04-25T14:52:12;10.30;99.90
27026;DHT22;14565;48.626;8.978;2023-04-25T14:54:40;10.60;99.90
27026;DHT22;14565;48.626;8.978;2023-04-25T14:57:06;10.90;99.90
27026;DHT22;14565;48.626;8.978;2023-04-25T14:59:32;10.80;99.90
27026;DHT22;14565;48.626;8.978;2023-04-25T15:01:58;10.80;99.90
27026;DHT22;14565;48.626;8.978;2023-04-25T15:04:24;10.60;99.90
27026;DHT22;14565;48.626;8.978;2023-04-25T15:06:50;10.90;99.90
27026;DHT22;14565;48.626;8.978;2023-04-25T15:09:15;10.90;99.90
27026;DHT22;14565;48.626;8.978;2023-04-25T15:11:42;11.10;99.90
27026;DHT22;14565;48.626;8.978;2023-04-25T15:14:07;10.70;99.90
27026;DHT22;14565;48.626;8.978;2023-04-25T15:16:33;10.70;99.90
27026;DHT22;14565;48.626;8.978;2023-04-25T15:18:59;10.20;99.90
27026;DHT22;14565;48.626;8.978;2023-04-25T15:21:24;10.00;99.90
27026;DHT22;14565;48.626;8.978;2023-04-25T15:23:51;10.10;99.90
27026;DHT22;14565;48.626;8.978;2023-04-25T15:26:17;10.10;99.90
27026;DHT22;14565;48.626;8.978;2023-04-25T15:28:43;10.40;99.90
27026;DHT22;14565;48.626;8.978;2023-04-25T15:31:09;10.50;99.90
27026;DHT22;14565;48.626;8.978;2023-04-25T15:33:35;10.30;99.90
27026;DHT22;14565;48.626;8.978;2023-04-25T15:36:00;10.50;99.90
27026;DHT22;14565;48.626;8.978;2023-04-25T15:38:28;10.60;99.90
27026;DHT22;14565;48.626;8.978;2023-04-25T15:40:54;10.30;99.90
27026;DHT22;14565;48.626;8.978;2023-04-25T15:43:20;10.30;99.90
27026;DHT22;14565;48.626;8.978;2023-04-25T15:45:45;10.30;99.90
27026;DHT22;14565;48.626;8.978;2023-04-25T15:48:11;10.20;99.90
27026;DHT22;14565;48.626;8.978;2023-04-25T15:50:37;10.20;99.90
27026;DHT22;14565;48.626;8.978;2023-04-25T15:53:03;10.40;99.90
27026;DHT22;14565;48.626;8.978;2023-04-25T15:55:29;10.20;99.90
27026;DHT22;14565;48.626;8.978;2023-04-25T15:57:54;10.40;99.90
27026;DHT22;14565;48.626;8.978;2023-04-25T16:00:20;9.90;99.90
27026;DHT22;14565;48.626;8.978;2023-04-25T16:02:47;10.20;99.90
27026;DHT22;14565;48.626;8.978;2023-04-25T16:05:13;10.50;99.90
27026;DHT22;14565;48.626;8.978;2023-04-25T16:07:41;10.20;99.90